createdAt,value
2023-03-25T00:07:01.395Z,73.50
2023-03-25T00:17:04.446Z,73.50
2023-03-25T00:27:07.594Z,74.17
2023-03-25T00:37:10.821Z,74.30
2023-03-25T00:47:18.527Z,74.93
2023-03-25T00:57:22.417Z,75.42
2023-03-25T01:07:26.167Z,75.36
2023-03-25T01:17:29.240Z,74.97
2023-03-25T01:27:32.340Z,75.53
2023-03-25T01:37:36.820Z,76.07
2023-03-25T01:47:40.592Z,76.41
2023-03-25T01:57:46.407Z,76.66
2023-03-25T02:07:50.197Z,76.66
2023-03-25T02:18:21.580Z,76.55
2023-03-25T02:28:53.128Z,77.31
2023-03-25T02:39:07.001Z,78.09
2023-03-25T02:49:21.002Z,79.34
2023-03-25T02:59:33.350Z,79.88
2023-03-25T03:09:44.660Z,80.30
2023-03-25T03:20:01.138Z,80.24
2023-03-25T03:30:16.452Z,80.90
2023-03-25T03:40:23.565Z,81.31
2023-03-25T03:50:33.442Z,80.92
2023-03-25T04:00:44.428Z,80.68
2023-03-25T04:10:59.345Z,80.90
2023-03-25T04:21:02.554Z,81.03
2023-03-25T04:31:16.737Z,81.17
2023-03-25T04:41:19.925Z,81.28
2023-03-25T04:51:23.660Z,81.69
2023-03-25T05:01:33.179Z,82.70
2023-03-25T05:11:39.614Z,83.42
2023-03-25T05:21:42.721Z,82.84
2023-03-25T05:31:46.743Z,82.11
2023-03-25T05:41:50.723Z,80.69
2023-03-25T05:51:56.144Z,80.60
2023-03-25T06:01:59.397Z,79.87
2023-03-25T06:12:04.083Z,80.19
2023-03-25T06:22:11.514Z,80.49
2023-03-25T06:32:15.792Z,80.63
2023-03-25T06:42:18.946Z,79.97
2023-03-25T06:52:55.271Z,79.70
2023-03-25T07:03:01.950Z,79.86
2023-03-25T07:13:05.097Z,80.28
2023-03-25T07:23:08.093Z,80.24
2023-03-25T07:33:11.384Z,79.97
2023-03-25T07:43:14.401Z,79.47
2023-03-25T07:53:20.437Z,78.96
2023-03-25T08:03:23.836Z,78.13
2023-03-25T08:13:27.092Z,76.16
2023-03-25T08:23:30.139Z,74.11
2023-03-25T08:33:34.734Z,73.20
2023-03-25T08:43:37.851Z,71.90
2023-03-25T08:53:41.265Z,71.01
2023-03-25T09:03:44.358Z,70.96
2023-03-25T09:13:47.616Z,69.78
2023-03-25T09:23:50.684Z,68.09
2023-03-25T09:33:53.861Z,65.22
2023-03-25T09:44:25.099Z,65.54
2023-03-25T09:54:32.621Z,63.80
2023-03-25T10:05:13.369Z,61.56
2023-03-25T10:15:50.309Z,59.29
2023-03-25T10:26:01.300Z,57.09
2023-03-25T10:36:08.038Z,56.71
2023-03-25T10:46:29.823Z,56.62
2023-03-25T10:56:37.672Z,55.79
2023-03-25T11:06:45.993Z,53.77
2023-03-25T11:16:56.069Z,51.29
2023-03-25T11:27:01.031Z,51.71
2023-03-25T11:37:22.650Z,51.09
2023-03-25T11:47:32.575Z,50.81
2023-03-25T11:57:41.258Z,49.32
2023-03-25T12:07:48.803Z,49.70
2023-03-25T12:18:16.688Z,49.48
2023-03-25T12:28:23.625Z,49.99
2023-03-25T12:38:29.459Z,50.76
2023-03-25T12:48:48.157Z,50.29
2023-03-25T12:59:09.612Z,49.61
2023-03-25T13:09:26.742Z,49.61
2023-03-25T13:19:39.693Z,50.77
2023-03-25T13:29:48.509Z,54.84
2023-03-25T13:40:01.261Z,58.20
2023-03-25T13:50:17.685Z,58.15
2023-03-25T14:00:45.539Z,58.49
2023-03-25T14:11:22.096Z,58.70
2023-03-25T14:21:35.625Z,60.86
2023-03-25T14:31:38.764Z,61.50
2023-03-25T14:42:13.546Z,60.66
2023-03-25T14:52:21.211Z,59.50
2023-03-25T15:02:32.181Z,59.42
2023-03-25T15:12:39.090Z,59.09
2023-03-25T15:22:43.692Z,58.69
2023-03-25T15:32:52.808Z,58.93
2023-03-25T15:43:34.987Z,59.21
2023-03-25T15:53:53.693Z,59.96
2023-03-25T16:04:36.952Z,60.27
2023-03-25T16:14:43.401Z,61.49
2023-03-25T16:24:50.442Z,62.25
2023-03-25T16:34:54.155Z,63.48
2023-03-25T16:44:57.291Z,63.25
2023-03-25T16:55:00.411Z,63.31
2023-03-25T17:05:33.259Z,63.99
2023-03-25T17:15:38.061Z,64.71
2023-03-25T17:25:53.581Z,65.74
2023-03-25T17:35:57.155Z,66.64
2023-03-25T17:46:01.316Z,66.99
2023-03-25T17:56:06.932Z,67.62
2023-03-25T18:06:12.200Z,68.68
2023-03-25T18:16:21.037Z,69.56
2023-03-25T18:26:24.245Z,70.67
2023-03-25T18:36:27.238Z,71.44
2023-03-25T18:46:30.589Z,72.13
2023-03-25T18:56:34.821Z,72.89
2023-03-25T19:06:39.473Z,73.37
2023-03-25T19:16:48.138Z,73.73
2023-03-25T19:26:57.617Z,74.76
2023-03-25T19:37:05.306Z,75.85
2023-03-25T19:47:08.801Z,76.72
2023-03-25T19:57:12.900Z,77.10
2023-03-25T20:07:16.320Z,77.22
2023-03-25T20:17:21.130Z,77.15
2023-03-25T20:27:26.017Z,76.99
2023-03-25T20:37:29.109Z,77.41
2023-03-25T20:47:32.472Z,77.84
2023-03-25T20:57:36.242Z,78.29
2023-03-25T21:07:41.291Z,78.37
2023-03-25T21:17:44.646Z,78.32
2023-03-25T21:27:49.289Z,78.88
2023-03-25T21:37:52.432Z,79.55
2023-03-25T21:47:55.469Z,80.45
2023-03-25T21:57:59.708Z,80.86
2023-03-25T22:08:05.261Z,80.88
2023-03-25T22:18:08.432Z,80.82
2023-03-25T22:28:11.845Z,80.49
2023-03-25T22:38:14.977Z,80.71
2023-03-25T22:48:19.000Z,81.41
2023-03-25T22:58:25.262Z,81.68
2023-03-25T23:08:31.785Z,81.95
2023-03-25T23:18:37.158Z,81.48
2023-03-25T23:28:41.444Z,81.01
2023-03-25T23:38:45.323Z,80.48
2023-03-25T23:48:49.379Z,79.54
2023-03-25T23:58:53.155Z,78.06
